Tiempo atmosférico en la estación meteorológica de Valmadrid, Zaragoza (535 m.)



Fecha
DESCASC
Temp. máxima en grados centígrados (hora)
DESCASC
Temp. mínima en grados centígrados (hora)
DESCASC
Temp. media en grados centígrados
DESCASC
Racha de viento máxima en m/sg (hora)
DESCASC
Velocidad máxima media en intervalos de 10 minutos(hora)
DESCASC
Precipitaciones diarias en mm
DESCASC
Precipitaciones de 00:00 a 06:00 en mm
DESCASC
Precipitaciones de 06:00 a 12:00 en mm
DESCASC
Precipitaciones de 12:00 a 18:00 en mm
DESCASC
Precipitaciones de 18:00 a 24:00 en mm
DESCASC
16-06-2019 29.2 (17:10) 9.7 (06:50) 19.5 7.78 (21:50) 5 (22:10) 0 0 0 0 0
15-06-2019 26.2 (17:40) 11.3 (06:40) 18.8 12.5 (08:20) 7.78 (08:10) 0 0 0 0 0
14-06-2019 28.1 (15:40) 12 (06:10) 20.1 8.33 (18:00) 5 (10:00) 0.4 0 0.4 0 0
13-06-2019 26.1 (16:00) 10 (00:00) 18.1 13.61 (18:10) 7.5 (17:00) 0 0 0 0 0
12-06-2019 22.5 (16:50) 4.7 (00:00) 13.6 10.28 (23:20) 6.39 (23:10) 0 0 0 0 0
11-06-2019 18.3 (17:40) 8.2 (00:00) 13.2 16.39 (18:50) 10 (18:50) 1.6 0 1.2 0.4 0
10-06-2019 21 (15:20) 11.1 (00:00) 16.1 19.44 (00:20) 12.78 (01:50) 0 0 0 0 0
09-06-2019 29.6 (16:30) 13.5 (00:00) 21.6 19.72 (23:59) 13.89 (23:30) 0 0 0 0 0
08-06-2019 25.8 (16:50) 8.9 (00:00) 17.3 13.89 (18:30) 8.33 (18:30) 0 0 0 0 0
07-06-2019 22.4 (18:10) 10.8 (00:00) 16.6 13.33 (13:50) 9.72 (08:00) 0 0 0 0 0
06-06-2019 25.6 (19:10) 8.9 (00:00) 17.3 11.67 (22:10) 7.5 (23:59) 0 0 0 0 0
05-06-2019 17.5 (17:10) 10.6 (00:00) 14.1 13.61 (11:10) 9.44 (12:20) 3.4 0 0.4 3 0
04-06-2019 31.8 (17:00) 10.9 (00:00) 21.3 12.5 (23:50) 9.72 (23:00) 0 0 0 0 0
03-06-2019 31 (15:30) 15.7 (00:00) 23.3 12.22 (20:30) 8.06 (20:30) 0 0 0 0 0
02-06-2019 32.8 (17:20) 11.9 (00:00) 22.3 9.72 (20:40) 6.11 (20:40) 0 0 0 0 0
01-06-2019 31.3 (17:20) 10.4 (00:00) 20.8 9.44 (21:10) 5.56 (21:10) 0 0 0 0 0
31-05-2019 29 (17:50) 12 (00:00) 20.5 6.94 (15:20) 4.17 (10:10) 0 0 0 0 0
30-05-2019 26.8 (17:50) 11.3 (00:00) 19 18.33 (00:50) 11.11 (08:50) 0 0 0 0 0
29-05-2019 19.7 (17:30) 9.3 (00:00) 14.5 18.61 (16:20) 13.89 (12:30) 0 0 0 0 0
28-05-2019 18.5 (16:40) 10 (00:00) 14.3 24.17 (10:50) 18.06 (06:20) 0 0 0 0 0
27-05-2019 22.2 (15:40) 10.4 (00:00) 16.3 18.33 (19:00) 12.78 (23:59) 0 0 0 0 0
26-05-2019 19.8 (17:10) 9.6 (00:00) 14.7 18.33 (01:50) 11.94 (19:10) 0 0 0 0 0
25-05-2019 19.7 (16:40) 10.6 (00:00) 15.2 20.83 (23:50) 13.33 (22:10) 0 0 0 0 0
24-05-2019 17.8 (16:30) 10.8 (00:00) 14.3 19.72 (22:10) 12.22 (22:10) 4.2 0.6 3.6 0 0
23-05-2019 27.1 (15:40) 10 (00:00) 18.6 15.28 (21:20) 10 (21:20) 3 0 0 0 3
22-05-2019 24.5 (18:30) 10.7 (00:00) 17.6 9.17 (06:00) 5.83 (16:40) 0 0 0 0 0
21-05-2019 22.4 (17:00) 7.9 (06:30) 15.1 10.28 (17:40) 6.39 (23:00) 0 0 0 0 0

Gráficas

Temp. máximas Temp. mínimas Temp. medias Precipitaciones Rachas de viento máximas Velocidades máximas media en intervalos de 10 minutos

Datos horarios

Fecha y hora oficial Temperatura (ºC) Velocidad del viento (km/h) Dirección del viento Racha (km/h) Dirección de racha Precipitación (mm) Presión (hPa) Tendencia (hPa) Humedad (%)
2019-06-19 23:00:00 23.2 3 Norte 9 Noroeste 0 -- -- 42
2019-06-19 22:00:00 23 5 Oeste 8 Oeste 0 -- -- 42
2019-06-19 21:00:00 27.2 4 Este 16 Nordeste 0 -- -- 32
2019-06-19 20:00:00 28 8 Nordeste 32 Oeste 0 -- -- 31
2019-06-19 19:00:00 31.5 18 Noroeste 32 Oeste 0 -- -- 25
2019-06-19 18:00:00 30.9 19 Oeste 38 Oeste 0 -- -- 26
2019-06-19 17:00:00 31.1 18 Oeste 30 Oeste 0 -- -- 27
2019-06-19 16:00:00 31.1 14 Oeste 33 Oeste -- -- -- 27
2019-06-19 15:00:00 30.1 14 Noroeste -- -- -- -- -- 29
2019-06-19 14:00:00 29.8 11 Sudoeste 23 Sudoeste 0 -- -- 29
2019-06-19 13:00:00 28.2 9 Oeste -- -- -- -- -- 32
2019-06-19 12:00:00 -- -- -- -- -- -- -- -- --
2019-06-19 11:00:00 -- -- -- -- -- -- -- -- --
2019-06-19 10:00:00 -- -- -- -- -- -- -- -- --
2019-06-19 09:00:00 -- -- -- -- -- -- -- -- --
2019-06-19 08:00:00 -- -- -- -- -- -- -- -- --
2019-06-19 07:00:00 -- -- -- -- -- -- -- -- --
2019-06-19 06:00:00 -- -- -- -- -- -- -- -- --
2019-06-19 05:00:00 -- -- -- -- -- -- -- -- --
2019-06-19 04:00:00 -- -- -- -- -- -- -- -- --
2019-06-19 03:00:00 -- -- -- -- -- -- -- -- --
2019-06-19 02:00:00 -- -- -- -- -- -- -- -- --
2019-06-19 01:00:00 -- -- -- -- -- -- -- -- --
2019-06-19 00:00:00 -- -- -- -- -- -- -- -- --
2019-06-18 23:00:00 -- -- -- -- -- -- -- -- --
2019-06-18 22:00:00 -- -- -- -- -- -- -- -- --
2019-06-18 21:00:00 -- -- -- -- -- -- -- -- --
2019-06-18 20:00:00 -- -- -- -- -- -- -- -- --
2019-06-18 19:00:00 31 13 Este 28 Nordeste 0 -- -- 29
2019-06-18 18:00:00 32.5 6 Este 33 Este 0 -- -- 20
2019-06-18 17:00:00 33.6 9 Este 35 Sudeste 0 -- -- 19
2019-06-18 16:00:00 32.7 10 Este 31 Este 0 -- -- 21
2019-06-18 15:00:00 32.1 13 Este 29 Este 0 -- -- 22
2019-06-18 14:00:00 31.5 12 Norte 22 Nordeste 0 -- -- 23
2019-06-18 13:00:00 30.9 9 Nordeste 19 Nordeste 0 -- -- 25
2019-06-18 12:00:00 28.6 15 Este 24 Este 0 -- -- 26
2019-06-18 11:00:00 28.3 5 Este 13 Este 0 -- -- 25
2019-06-18 10:00:00 24.1 5 Nordeste 15 Sudeste 0 -- -- 35
2019-06-18 09:00:00 19.7 10 Sudeste 22 Sudeste 0 -- -- 43
2019-06-18 08:00:00 17.4 3 Sudeste 18 Noroeste 0 -- -- 52
2019-06-18 07:00:00 17 5 Sudoeste 9 Sudeste 0 -- -- 50
2019-06-18 06:00:00 16.5 4 Oeste 10 Sudeste 0 -- -- 52
2019-06-18 05:00:00 17.2 5 Sudeste 15 Oeste 0 -- -- 52
2019-06-18 04:00:00 18.2 4 Oeste 11 Oeste 0 -- -- 51
2019-06-18 03:00:00 19.4 6 Oeste 9 Oeste 0 -- -- 47
2019-06-18 02:00:00 21.8 4 Sur 12 Sur 0 -- -- 40
2019-06-18 01:00:00 23.1 10 Sur 25 Este 0 -- -- 36
2019-06-18 00:00:00 23.9 21 Este 39 Este 0 -- -- 35
2019-06-17 23:00:00 25.4 23 Este 36 Este 0 -- -- 31
2019-06-17 22:00:00 27 21 Este 37 Este 0 -- -- 30
2019-06-17 21:00:00 28.9 22 Este 39 Este 0 -- -- 29
2019-06-17 20:00:00 31.1 12 Este 30 Este 0 -- -- 20
2019-06-17 19:00:00 31.5 14 Este 30 Este 0 -- -- 18
2019-06-17 18:00:00 31.9 14 Este 31 Nordeste 0 -- -- 18
2019-06-17 17:00:00 32.3 11 Este 28 Este 0 -- -- 18
2019-06-17 16:00:00 31.6 11 Este 30 Nordeste 0 -- -- 20
2019-06-17 15:00:00 31.9 9 Norte 26 Nordeste 0 -- -- 20
2019-06-17 14:00:00 30.4 10 Norte 21 Nordeste 0 -- -- 25
2019-06-17 13:00:00 29.6 9 Nordeste 21 Norte 0 -- -- 28
2019-06-17 12:00:00 28.1 7 Norte 16 Nordeste 0 -- -- 32
2019-06-17 11:00:00 26.6 4 Norte 12 Norte 0 -- -- 35
2019-06-17 10:00:00 25.1 5 Norte 9 Noroeste 0 -- -- 38
2019-06-17 09:00:00 23.1 3 Nordeste 5 Nordeste 0 -- -- 43
2019-06-17 08:00:00 17.3 4 Sur 10 Sudeste 0 -- -- 61
2019-06-17 07:00:00 13.5 6 Sudeste 9 Sudeste 0 -- -- 71
2019-06-17 06:00:00 14.1 5 Sur 9 Sur 0 -- -- 68
2019-06-17 05:00:00 15.3 0 Calma 14 Sudeste 0 -- -- 64
2019-06-17 04:00:00 16.5 4 Oeste 14 Sudeste 0 -- -- 60
2019-06-17 03:00:00 19.1 3 Sudeste 10 Sur 0 -- -- 51
2019-06-17 02:00:00 19.2 5 Sur 12 Sudeste 0 -- -- 49
2019-06-17 01:00:00 18.9 6 Sudeste 12 Sur 0 -- -- 50
2019-06-17 00:00:00 20.5 5 Sudeste 18 Este 0 -- -- 45
2019-06-16 23:00:00 22.6 15 Este 25 Sudeste 0 -- -- 38
2019-06-16 22:00:00 24.5 17 Este 28 Este 0 -- -- 36
2019-06-16 21:00:00 26.6 13 Este 22 Este 0 -- -- 29
2019-06-16 20:00:00 27.4 12 Este 23 Este 0 -- -- 24
2019-06-16 19:00:00 28.2 8 Norte 22 Este 0 -- -- 23
2019-06-16 18:00:00 28.3 12 Este 20 Este 0 -- -- 22
2019-06-16 17:00:00 28.6 10 Nordeste 22 Este 0 -- -- 23
2019-06-16 16:00:00 28.1 11 Nordeste 22 Nordeste 0 -- -- 24
2019-06-16 15:00:00 27.5 10 Este 21 Este 0 -- -- 25
2019-06-16 14:00:00 26.3 12 Este 27 Este 0 -- -- 28
2019-06-16 13:00:00 25.1 12 Norte 21 Norte 0 -- -- 29
2019-06-16 12:00:00 22.8 9 Norte 18 Norte 0 -- -- 33
2019-06-16 11:00:00 21 5 Norte 13 Norte 0 -- -- 36
2019-06-16 10:00:00 18.7 7 Norte 18 Norte 0 -- -- 45
2019-06-16 09:00:00 16.8 9 Norte 14 Norte 0 -- -- 51
2019-06-16 08:00:00 14 3 Sudeste 12 Sudeste 0 -- -- 61
2019-06-16 07:00:00 9.7 6 Sudeste 11 Sudeste 0 -- -- 73
2019-06-16 06:00:00 9.8 3 Este 12 Sudeste 0 -- -- 72
2019-06-16 05:00:00 11.4 7 Sudeste 19 Sudoeste 0 -- -- 67
2019-06-16 04:00:00 12.5 4 Este 13 Este 0 -- -- 62
2019-06-16 03:00:00 14.4 3 Sur 12 Oeste 0 -- -- 56
2019-06-16 02:00:00 14.2 5 Sudoeste 16 Oeste 0 -- -- 56
2019-06-16 01:00:00 15 6 Oeste 14 Oeste 0 -- -- 52
2019-06-16 00:00:00 15.7 5 Noroeste 16 Oeste 0 -- -- 49
2019-06-15 23:00:00 15.6 7 Oeste 19 Noroeste 0 -- -- 51
2019-06-15 22:00:00 19.2 7 Noroeste 31 Noroeste 0 -- -- 40
2019-06-15 21:00:00 21.1 24 Noroeste 33 Noroeste 0 -- -- 35
2019-06-15 20:00:00 23.3 22 Noroeste 34 Noroeste 0 -- -- 32
2019-06-15 19:00:00 24.5 19 Noroeste 32 Oeste 0 -- -- 31
2019-06-15 18:00:00 25 19 Noroeste 34 Oeste 0 -- -- 29
2019-06-15 17:00:00 25.4 18 Noroeste 31 Noroeste 0 -- -- 29
2019-06-15 16:00:00 25.4 14 Noroeste 31 Oeste 0 -- -- 28
2019-06-15 15:00:00 24.4 17 Noroeste 33 Oeste 0 -- -- 30
2019-06-15 14:00:00 24.3 16 Noroeste 35 Oeste 0 -- -- 30
2019-06-15 13:00:00 22.7 19 Noroeste 36 Oeste 0 -- -- 37
2019-06-15 12:00:00 20.9 23 Oeste 36 Oeste 0 -- -- 41
2019-06-15 11:00:00 18.9 23 Oeste 32 Oeste 0 -- -- 49
2019-06-15 10:00:00 16.9 14 Noroeste 35 Oeste 0 -- -- 57
2019-06-15 09:00:00 14.8 22 Oeste 45 Oeste 0 -- -- 66
2019-06-15 08:00:00 13.2 26 Oeste 39 Oeste 0 -- -- 73
2019-06-15 07:00:00 11.6 17 Oeste 24 Oeste 0 -- -- 80
2019-06-15 06:00:00 12.1 15 Oeste 26 Oeste 0 -- -- 79
2019-06-15 05:00:00 12.7 13 Oeste 33 Oeste 0 -- -- 78
2019-06-15 04:00:00 12.8 20 Oeste 30 Oeste 0 -- -- 78
2019-06-15 03:00:00 13.3 18 Oeste 39 Noroeste 0 -- -- 75
2019-06-15 02:00:00 14.2 23 Noroeste 35 Noroeste 0 -- -- 71
2019-06-15 01:00:00 16.2 11 Oeste 23 Oeste 0 -- -- 57
2019-06-15 00:00:00 15.4 3 Sudeste 12 Sudeste 0 -- -- 40
2019-06-14 23:00:00 18.4 10 Sudeste 15 Sudoeste 0 -- -- 35
2019-06-14 22:00:00 22.2 10 Sudeste 18 Sudeste 0 -- -- 45
2019-06-14 21:00:00 25.3 9 Sur 28 Sudeste 0 -- -- 37
2019-06-14 20:00:00 26.3 17 Este 28 Sudeste 0 -- -- 36
2019-06-14 19:00:00 26.6 15 Este 25 Este 0 -- -- 36
2019-06-14 18:00:00 26.2 14 Este 30 Este 0 -- -- 37
2019-06-14 17:00:00 26.2 10 Este 25 Norte 0 -- -- 37
2019-06-14 16:00:00 26.9 17 Norte 29 Norte 0 -- -- 36
2019-06-14 15:00:00 26.5 5 Oeste 19 Sudoeste 0 -- -- 32
2019-06-14 14:00:00 23.5 6 Sudeste 15 Sudoeste 0 -- -- 49
2019-06-14 13:00:00 17 8 Sur 13 Sur 0 -- -- 62
2019-06-14 12:00:00 15.2 5 Sudeste 16 Este 0.4 -- -- 64
2019-06-14 11:00:00 14.9 14 Sudeste 27 Oeste 0 -- -- 56
2019-06-14 10:00:00 15.6 18 Oeste 26 Oeste 0 -- -- 40
2019-06-14 09:00:00 15.2 4 Nordeste 13 Sur 0 -- -- 41
2019-06-14 08:00:00 14.1 8 Sur 15 Este 0 -- -- 41
2019-06-14 07:00:00 12.9 6 Este 15 Sudeste 0 -- -- 43
2019-06-14 06:00:00 12.5 6 Sudeste 15 Sudeste 0 -- -- 45
2019-06-14 05:00:00 13.4 7 Sur 15 Oeste 0 -- -- 41
2019-06-14 04:00:00 14.8 8 Sudeste 15 Sudeste 0 -- -- 35
2019-06-14 03:00:00 15.2 4 Sudeste 15 Este 0 -- -- 31
2019-06-14 02:00:00 15.6 9 Sudeste 14 Este 0 -- -- 29
2019-06-14 01:00:00 15.4 6 Sudoeste 15 Sudeste 0 -- -- 31
2019-06-14 00:00:00 15.9 4 Sudeste 13 Este 0 -- -- 31
2019-06-13 23:00:00 17.4 8 Sudeste 23 Este 0 -- -- 37
2019-06-13 22:00:00 18.8 7 Este 32 Este 0 -- -- 48
2019-06-13 21:00:00 20.4 12 Este 34 Este 0 -- -- 51
2019-06-13 20:00:00 21.3 16 Este 39 Este 0 -- -- 53
2019-06-13 19:00:00 21.8 21 Este 49 Este 0 -- -- 51
2019-06-13 18:00:00 24.5 26 Este 48 Este 0 -- -- 42
2019-06-13 17:00:00 25.5 27 Este 43 Este 0 -- -- 38
2019-06-13 16:00:00 26.1 21 Este 44 Este 0 -- -- 37
2019-06-13 15:00:00 24.4 23 Este 40 Este 0 -- -- 42
2019-06-13 14:00:00 22.8 21 Este 39 Este 0 -- -- 47
2019-06-13 13:00:00 22.4 21 Este 38 Este 0 -- -- 48
2019-06-13 12:00:00 20.4 21 Este 37 Este 0 -- -- 53
2019-06-13 11:00:00 18.2 16 Este 28 Este 0 -- -- 58
2019-06-13 10:00:00 16.5 14 Este 26 Este 0 -- -- 61
2019-06-13 09:00:00 14.8 8 Este 17 Este 0 -- -- 67
2019-06-13 08:00:00 13.2 0 Calma 10 Este 0 -- -- 66
2019-06-13 07:00:00 11.2 5 Este 12 Sur 0 -- -- 71
2019-06-13 06:00:00 10.1 4 Sur 9 Sur 0 -- -- 76
2019-06-13 05:00:00 10.3 5 Sur 17 Este 0 -- -- 77
2019-06-13 04:00:00 10.6 2 Sudeste 9 Este 0 -- -- 68
2019-06-13 03:00:00 11.9 4 Sudeste 18 Sudeste 0 -- -- 59
2019-06-13 02:00:00 13.3 9 Sudeste 26 Este 0 -- -- 53
2019-06-13 01:00:00 14.5 13 Este 25 Este 0 -- -- 49
2019-06-13 00:00:00 15.6 13 Este 37 Este 0 -- -- 49
2019-06-12 23:00:00 17.2 23 Este 37 Este 0 -- -- 44
2019-06-12 22:00:00 18.1 15 Este 36 Este 0 -- -- 36
2019-06-12 21:00:00 19.8 18 Este 32 Este 0 -- -- 29
2019-06-12 20:00:00 21 16 Este 32 Este 0 -- -- 28
2019-06-12 19:00:00 21.4 13 Este 30 Sudeste 0 -- -- 28
2019-06-12 18:00:00 22.1 12 Nordeste 31 Nordeste 0 -- -- 29
2019-06-12 17:00:00 21.7 8 Norte 30 Nordeste 0 -- -- 30
2019-06-12 16:00:00 20.1 11 Nordeste 33 Norte 0 -- -- 33
2019-06-12 15:00:00 19.4 16 Norte 24 Norte 0 -- -- 35
2019-06-12 14:00:00 18.6 10 Sudeste 26 Este 0 -- -- 37
2019-06-12 13:00:00 18 10 Este 26 Sudeste 0 -- -- 38
2019-06-12 12:00:00 16.3 10 Este 23 Este 0 -- -- 45
2019-06-12 11:00:00 15.5 4 Este 15 Este 0 -- -- 46
2019-06-12 10:00:00 14.7 5 Sudoeste 13 Oeste 0 -- -- 50
2019-06-12 09:00:00 12.7 8 Noroeste 15 Oeste 0 -- -- 59
2019-06-12 08:00:00 8.9 4 Sudeste 13 Sudeste 0 -- -- 75
2019-06-12 07:00:00 5.3 10 Sudeste 14 Sudeste 0 -- -- 86
2019-06-12 06:00:00 4.9 8 Sudeste 14 Sudoeste 0 -- -- 87
2019-06-12 05:00:00 6.8 10 Oeste 14 Oeste 0 -- -- 81
2019-06-12 04:00:00 6.1 4 Sudeste 14 Sudeste 0 -- -- 83
2019-06-12 03:00:00 7.2 5 Sudoeste 18 Oeste 0 -- -- 77
2019-06-12 02:00:00 7.1 7 Sudoeste 13 Sudoeste 0 -- -- 80
2019-06-12 01:00:00 8.9 9 Oeste 18 Oeste 0 -- -- 72
2019-06-12 00:00:00 9.1 14 Oeste 29 Noroeste 0 -- -- 71
2019-06-11 23:00:00 10.9 24 Noroeste 35 Noroeste 0 -- -- 62
2019-06-11 22:00:00 11.7 22 Noroeste 42 Noroeste 0 -- -- 57
2019-06-11 21:00:00 13.6 23 Noroeste 44 Noroeste 0 -- -- 50
2019-06-11 20:00:00 15.5 33 Noroeste 51 Oeste 0 -- -- 44
2019-06-11 19:00:00 16.9 33 Noroeste 59 Noroeste 0 -- -- 36
2019-06-11 18:00:00 17.8 31 Noroeste 51 Noroeste 0 -- -- 34
2019-06-11 17:00:00 17.7 31 Noroeste 48 Noroeste 0 -- -- 35
2019-06-11 16:00:00 17.5 30 Oeste 42 Oeste 0 -- -- 40
2019-06-11 15:00:00 15.6 23 Noroeste 37 Oeste 0.2 -- -- 49
2019-06-11 14:00:00 13.5 22 Oeste 36 Oeste 0 -- -- 65
2019-06-11 13:00:00 10.5 22 Oeste 36 Oeste 0.2 -- -- 81
2019-06-11 12:00:00 9.7 19 Oeste 36 Oeste 0.2 -- -- 88
2019-06-11 11:00:00 9 28 Oeste 42 Oeste 0.4 -- -- 88
2019-06-11 10:00:00 8.7 28 Oeste 41 Oeste 0 -- -- 86
2019-06-11 09:00:00 8.5 18 Oeste 26 Oeste 0.2 -- -- 85
2019-06-11 08:00:00 8.2 13 Noroeste 23 Noroeste 0.4 -- -- 86
2019-06-11 07:00:00 9.5 23 Noroeste 46 Oeste 0 -- -- 72
2019-06-11 06:00:00 9.7 28 Oeste 41 Oeste 0 -- -- 71
2019-06-11 05:00:00 10 22 Oeste 39 Oeste 0 -- -- 68
2019-06-11 04:00:00 10.6 30 Oeste 39 Oeste 0 -- -- 61
2019-06-11 03:00:00 11.2 15 Oeste 25 Oeste 0 -- -- 60
2019-06-11 02:00:00 11.8 17 Oeste 27 Noroeste 0 -- -- 54
2019-06-11 01:00:00 12.4 12 Oeste 24 Oeste 0 -- -- 51
2019-06-11 00:00:00 12.8 14 Oeste 30 Noroeste 0 -- -- 51
2019-06-10 23:00:00 13 10 Oeste 28 Noroeste 0 -- -- 53
2019-06-10 22:00:00 13.8 18 Noroeste 38 Noroeste 0 -- -- 50
2019-06-10 21:00:00 15.2 26 Noroeste 49 Noroeste 0 -- -- 49
2019-06-10 20:00:00 16.4 25 Noroeste 45 Oeste 0 -- -- 45
2019-06-10 19:00:00 18 29 Noroeste 50 Oeste 0 -- -- 42
2019-06-10 18:00:00 18.7 33 Noroeste 45 Noroeste 0 -- -- 42
2019-06-10 17:00:00 20.1 32 Noroeste 49 Noroeste 0 -- -- 39
2019-06-10 16:00:00 20.4 33 Noroeste 50 Noroeste 0 -- -- 38
2019-06-10 15:00:00 20 30 Noroeste 52 Noroeste 0 -- -- 42
2019-06-10 14:00:00 19.1 32 Noroeste 48 Oeste 0 -- -- 43
2019-06-10 13:00:00 18.1 31 Oeste 45 Oeste 0 -- -- 46
2019-06-10 12:00:00 16.9 31 Noroeste 48 Oeste 0 -- -- 50
2019-06-10 11:00:00 15.1 31 Noroeste 46 Oeste 0 -- -- 57
2019-06-10 10:00:00 15.5 22 Noroeste 44 Oeste 0 -- -- 56
2019-06-10 09:00:00 14.5 19 Noroeste 41 Oeste 0 -- -- 63
2019-06-10 08:00:00 12.5 19 Noroeste 41 Noroeste 0 -- -- 70
2019-06-10 07:00:00 11.2 15 Noroeste 31 Noroeste 0 -- -- 76
2019-06-10 06:00:00 11.1 15 Noroeste 36 Oeste 0 -- -- 78
2019-06-10 05:00:00 11.7 21 Noroeste 40 Noroeste 0 -- -- 77
2019-06-10 04:00:00 12.3 41 Oeste 64 Oeste 0 -- -- 74
2019-06-10 03:00:00 12.7 45 Oeste 64 Oeste 0 -- -- 73
2019-06-10 02:00:00 13.2 40 Oeste 63 Oeste 0 -- -- 73
2019-06-10 01:00:00 13.5 41 Oeste 70 Oeste 0 -- -- 73
2019-06-10 00:00:00 15.1 46 Oeste 71 Oeste 0 -- -- 65
2019-06-09 23:00:00 16.4 46 Oeste 64 Oeste 0 -- -- 60
2019-06-09 22:00:00 17.5 46 Oeste 63 Oeste 0 -- -- 58
2019-06-09 21:00:00 21.8 37 Noroeste 50 Noroeste 0 -- -- 47
2019-06-09 20:00:00 23.5 6 Oeste 14 Este 0 -- -- 38
2019-06-09 19:00:00 26.7 9 Este 15 Nordeste 0 -- -- 26
2019-06-09 18:00:00 28.1 9 Norte 24 Norte 0 -- -- 25
2019-06-09 17:00:00 28 11 Norte 21 Noroeste 0 -- -- 26
2019-06-09 16:00:00 27.7 9 Nordeste 23 Norte 0 -- -- 25
2019-06-09 15:00:00 27.4 11 Norte 25 Norte 0 -- -- 25
2019-06-09 14:00:00 27.7 5 Norte 24 Noroeste 0 -- -- 24
2019-06-09 13:00:00 25.7 9 Este 18 Noroeste 0 -- -- 28
2019-06-09 12:00:00 24.8 10 Norte 21 Noroeste 0 -- -- 29
2019-06-09 11:00:00 23 7 Noroeste 13 Noroeste 0 -- -- 31
2019-06-09 10:00:00 21.3 3 Noroeste 14 Sur 0 -- -- 32
2019-06-09 09:00:00 18.8 6 Sudeste 12 Este 0 -- -- 38
2019-06-09 08:00:00 15.1 2 Oeste 11 Sur 0 -- -- 51
2019-06-09 07:00:00 13.9 4 Sur 11 Sur 0 -- -- 50
2019-06-09 06:00:00 14.1 4 Sudoeste 18 Sudeste 0 -- -- 50
2019-06-09 05:00:00 14.9 8 Sudeste 15 Sudeste 0 -- -- 48
2019-06-09 04:00:00 15.4 8 Sudeste 13 Sudeste 0 -- -- 46
2019-06-09 03:00:00 15.7 4 Este 16 Este 0 -- -- 46
2019-06-09 02:00:00 16.1 5 Sudeste 11 Este 0 -- -- 46
2019-06-09 01:00:00 16.7 6 Nordeste 28 Este 0 -- -- 45
2019-06-09 00:00:00 17.7 17 Este 35 Este 0 -- -- 42
2019-06-08 23:00:00 18.4 18 Este 40 Este 0 -- -- 40
2019-06-08 22:00:00 19.3 17 Este 39 Este 0 -- -- 39
2019-06-08 21:00:00 20.8 22 Este 38 Este 0 -- -- 37
2019-06-08 20:00:00 23 22 Este 47 Este 0 -- -- 35
2019-06-08 19:00:00 24 23 Este 50 Este 0 -- -- 33
2019-06-08 18:00:00 24.4 28 Este 49 Nordeste 0 -- -- 33
2019-06-08 17:00:00 25.5 22 Este 37 Este 0 -- -- 31
2019-06-08 16:00:00 24.4 22 Este 39 Este 0 -- -- 33
2019-06-08 15:00:00 23 17 Este 33 Este 0 -- -- 35
2019-06-08 14:00:00 21.7 18 Este 36 Este 0 -- -- 36
2019-06-08 13:00:00 20.9 14 Este 24 Este 0 -- -- 35
2019-06-08 12:00:00 20 8 Norte 17 Norte 0 -- -- 38
2019-06-08 11:00:00 17.7 5 Nordeste 13 Noroeste 0 -- -- 41
2019-06-08 10:00:00 16.1 6 Noroeste 15 Oeste 0 -- -- 46
2019-06-08 09:00:00 13.6 4 Sudoeste 13 Oeste 0 -- -- 53
2019-06-08 08:00:00 11.6 4 Oeste 18 Oeste 0 -- -- 58
2019-06-08 07:00:00 9.4 5 Sur 17 Sudoeste 0 -- -- 65
2019-06-08 06:00:00 9.6 6 Sudoeste 24 Sudoeste 0 -- -- 67
2019-06-08 05:00:00 10 6 Sudeste 15 Sudoeste 0 -- -- 67
2019-06-08 04:00:00 11 10 Sudoeste 21 Sudoeste 0 -- -- 64
2019-06-08 03:00:00 11.4 6 Sudoeste 18 Sudoeste 0 -- -- 63
2019-06-08 02:00:00 11.9 4 Nordeste 14 Sudoeste 0 -- -- 58
2019-06-08 01:00:00 11.4 7 Sudeste 13 Sudeste 0 -- -- 53
2019-06-08 00:00:00 10.8 8 Sudeste 13 Sudeste 0 -- -- 55
2019-06-07 23:00:00 12.8 8 Sudeste 15 Sudeste 0 -- -- 47
2019-06-07 22:00:00 15.7 4 Oeste 36 Noroeste 0 -- -- 40
2019-06-07 21:00:00 19.1 26 Oeste 39 Oeste 0 -- -- 26
2019-06-07 20:00:00 21.1 22 Oeste 34 Oeste 0 -- -- 23
2019-06-07 19:00:00 22.1 19 Noroeste 33 Oeste 0 -- -- 24
2019-06-07 18:00:00 22.2 19 Noroeste 37 Sudoeste 0 -- -- 24
2019-06-07 17:00:00 21.8 21 Oeste 43 Oeste 0 -- -- 24
2019-06-07 16:00:00 21.6 16 Oeste 35 Sudoeste 0 -- -- 26
2019-06-07 15:00:00 20.6 15 Oeste 43 Oeste 0 -- -- 28
2019-06-07 14:00:00 19.9 23 Oeste 48 Oeste 0 -- -- 28
2019-06-07 13:00:00 19.4 14 Sudoeste 40 Sudoeste 0 -- -- 34
2019-06-07 12:00:00 17.3 22 Sudoeste 42 Sur 0 -- -- 37
2019-06-07 11:00:00 15.9 17 Oeste 36 Sudoeste 0 -- -- 49
2019-06-07 10:00:00 14.5 19 Oeste 35 Oeste 0 -- -- 51
2019-06-07 09:00:00 11.9 19 Oeste 38 Sudoeste 0 -- -- 65
2019-06-07 08:00:00 11.6 35 Oeste 47 Oeste 0 -- -- 67
2019-06-07 07:00:00 13.6 22 Oeste 42 Oeste 0 -- -- 66
2019-06-07 06:00:00 16.2 8 Sudeste 26 Sudeste 0 -- -- 56
2019-06-07 05:00:00 16 11 Sudeste 31 Sudeste 0 -- -- 57
2019-06-07 04:00:00 16.4 20 Sudeste 42 Sudeste 0 -- -- 55
2019-06-07 03:00:00 17.3 19 Sudeste 41 Sudeste 0 -- -- 52
2019-06-07 02:00:00 18 25 Sudeste 41 Sur 0 -- -- 47
2019-06-07 01:00:00 18.7 20 Sudeste 43 Sudeste 0 -- -- 41
2019-06-07 00:00:00 19.1 27 Sudeste 41 Sudeste 0 -- -- 37
2019-06-06 23:00:00 20 24 Sudeste 42 Sudeste 0 -- -- 42
2019-06-06 22:00:00 21.7 22 Sudeste 40 Sur 0 -- -- 38
2019-06-06 21:00:00 23.2 24 Sudeste 41 Sudeste 0 -- -- 35
2019-06-06 20:00:00 25.1 3 Norte 13 Noroeste 0 -- -- 29
2019-06-06 19:00:00 25.3 7 Noroeste 26 Este 0 -- -- 28
2019-06-06 18:00:00 24.7 12 Este 31 Este 0 -- -- 31
2019-06-06 17:00:00 24 17 Este 40 Este 0 -- -- 34
2019-06-06 16:00:00 24.8 19 Este 40 Este 0 -- -- 30
2019-06-06 15:00:00 23.2 21 Este 36 Este 0 -- -- 31
2019-06-06 14:00:00 21.7 18 Este 34 Este 0 -- -- 34
2019-06-06 13:00:00 20.5 15 Este 29 Este 0 -- -- 38
2019-06-06 12:00:00 18.6 12 Este 21 Este 0 -- -- 41
2019-06-06 11:00:00 16.9 9 Este 22 Este 0 -- -- 45
2019-06-06 10:00:00 15.8 8 Este 17 Este 0 -- -- 46
2019-06-06 09:00:00 14.9 3 Este 8 Sudeste 0 -- -- 52
2019-06-06 08:00:00 10.8 6 Sudeste 10 Sudeste 0 -- -- 72
2019-06-06 07:00:00 9 6 Sudeste 14 Sudeste 0 -- -- 77
2019-06-06 06:00:00 9.2 5 Sur 17 Sudoeste 0 -- -- 76
2019-06-06 05:00:00 10.3 14 Sudoeste 23 Sudoeste 0 -- -- 72
2019-06-06 04:00:00 10.2 15 Sudoeste 21 Sudoeste 0 -- -- 75
2019-06-06 03:00:00 9.7 10 Oeste 18 Sudoeste 0 -- -- 80
2019-06-06 02:00:00 10.4 10 Oeste 18 Sudoeste 0 -- -- 76
2019-06-06 01:00:00 11.2 5 Sudoeste 13 Oeste 0 -- -- 68
2019-06-06 00:00:00 10.6 7 Oeste 14 Oeste 0 -- -- 74
2019-06-05 23:00:00 11.1 8 Oeste 21 Oeste 0 -- -- 73
2019-06-05 22:00:00 12.5 14 Oeste 22 Noroeste 0 -- -- 68
2019-06-05 21:00:00 13.9 18 Oeste 35 Noroeste 0 -- -- 61
2019-06-05 20:00:00 15.3 23 Noroeste 44 Oeste 0 -- -- 58
2019-06-05 19:00:00 17.4 23 Oeste 40 Oeste 0 -- -- 49
2019-06-05 18:00:00 17 30 Noroeste 47 Noroeste 0 -- -- 55
2019-06-05 17:00:00 17.4 26 Oeste 44 Oeste 0.2 -- -- 57
2019-06-05 16:00:00 16.4 24 Oeste 42 Oeste 0 -- -- 60
2019-06-05 15:00:00 13.9 24 Oeste 45 Oeste 0 -- -- 71
2019-06-05 14:00:00 11.9 24 Oeste 43 Noroeste 1.8 -- -- 92
2019-06-05 13:00:00 11 22 Oeste 48 Oeste 1 -- -- 89
2019-06-05 12:00:00 12.7 29 Noroeste 49 Noroeste 0 -- -- 76
2019-06-05 11:00:00 12.3 28 Oeste 43 Oeste 0.2 -- -- 82
2019-06-05 10:00:00 11.4 26 Noroeste 39 Noroeste 0.2 -- -- 92
2019-06-05 09:00:00 11.6 17 Oeste 35 Oeste 0 -- -- 82
2019-06-05 08:00:00 11.8 9 Noroeste 35 Oeste 0 -- -- 82
2019-06-05 07:00:00 11.2 10 Noroeste 41 Oeste 0 -- -- 81
2019-06-05 06:00:00 11.7 23 Oeste 40 Oeste 0 -- -- 75
2019-06-05 05:00:00 12.3 14 Oeste 29 Sudoeste 0 -- -- 73
2019-06-05 04:00:00 12.5 21 Oeste 39 Oeste 0 -- -- 72
2019-06-05 03:00:00 13.3 7 Sur 33 Oeste 0 -- -- 71
2019-06-05 02:00:00 14 21 Oeste 38 Noroeste 0 -- -- 75
2019-06-05 01:00:00 14.8 18 Oeste 40 Oeste 0 -- -- 75
2019-06-05 00:00:00 16.6 27 Oeste 45 Oeste 0 -- -- 70
2019-06-04 23:00:00 17.9 35 Oeste 45 Oeste 0 -- -- 68
2019-06-04 22:00:00 21.1 29 Noroeste 41 Oeste 0 -- -- 57
2019-06-04 21:00:00 25.7 6 Sudeste 24 Este 0 -- -- 44
2019-06-04 20:00:00 27.9 12 Este 32 Este 0 -- -- 35
2019-06-04 19:00:00 29.5 18 Este 35 Este 0 -- -- 27
2019-06-04 18:00:00 30.7 22 Este 37 Este 0 -- -- 28
2019-06-04 17:00:00 31.8 19 Este 32 Este 0 -- -- 24
2019-06-04 16:00:00 31.5 19 Este 31 Este 0 -- -- 25
2019-06-04 15:00:00 30.9 15 Este 31 Este 0 -- -- 25
2019-06-04 14:00:00 28.6 19 Este 35 Sudeste 0 -- -- 30
2019-06-04 13:00:00 26.8 18 Este 30 Este 0 -- -- 32
2019-06-04 12:00:00 26 15 Este 22 Este 0 -- -- 32
2019-06-04 11:00:00 25.5 8 Este 15 Sudeste 0 -- -- 33
2019-06-04 10:00:00 22.4 8 Sudeste 13 Este 0 -- -- 41
2019-06-04 09:00:00 19.9 4 Este 12 Este 0 -- -- 47
2019-06-04 08:00:00 15.7 4 Sudeste 12 Sudeste 0 -- -- 63
2019-06-04 07:00:00 11.2 9 Sudeste 12 Sudeste 0 -- -- 81
2019-06-04 06:00:00 11.4 3 Sudeste 13 Sudeste 0 -- -- 80
2019-06-04 05:00:00 12.4 6 Sudeste 9 Sudeste 0 -- -- 75
2019-06-04 04:00:00 13.7 2 Sudoeste 9 Sur 0 -- -- 70
2019-06-04 03:00:00 14.1 4 Oeste 8 Oeste 0 -- -- 71
2019-06-04 02:00:00 16.4 0 Calma 9 Sudeste 0 -- -- 60
2019-06-04 01:00:00 18 4 Sudeste 13 Sur 0 -- -- 55
2019-06-04 00:00:00 19.6 5 Sudeste 13 Sur 0 -- -- 49
2019-06-03 23:00:00 21.7 11 Sudeste 21 Sudeste 0 -- -- 43
2019-06-03 22:00:00 23 6 Sudeste 28 Este 0 -- -- 41
2019-06-03 21:00:00 26.3 18 Este 44 Este 0 -- -- 37
2019-06-03 20:00:00 28.9 24 Este 38 Sudeste 0 -- -- 32
2019-06-03 19:00:00 30.8 23 Este 36 Este 0 -- -- 24
2019-06-03 18:00:00 30.8 20 Este 34 Este 0 -- -- 24
2019-06-03 17:00:00 30.8 17 Este 39 Este 0 -- -- 22
2019-06-03 16:00:00 30.6 14 Este 34 Sudeste 0 -- -- 25
2019-06-03 15:00:00 30.7 10 Nordeste 22 Nordeste 0 -- -- 24
2019-06-03 14:00:00 29.4 10 Nordeste 26 Nordeste 0 -- -- 26
2019-06-03 13:00:00 28 10 Norte 16 Norte 0 -- -- 32
2019-06-03 12:00:00 25.8 9 Norte 14 Noroeste 0 -- -- 36
2019-06-03 11:00:00 24.7 8 Norte 12 Norte 0 -- -- 40
2019-06-03 10:00:00 23.2 3 Nordeste 9 Nordeste 0 -- -- 42
2019-06-03 09:00:00 19.3 5 Norte 7 Norte 0 -- -- 51
2019-06-03 08:00:00 18.1 2 Noroeste 6 Este 0 -- -- 52
2019-06-03 07:00:00 16.4 4 Sudeste 15 Sur 0 -- -- 55
2019-06-03 06:00:00 16.6 4 Sur 13 Sur 0 -- -- 54
2019-06-03 05:00:00 17.2 7 Sudeste 14 Sur 0 -- -- 51
2019-06-03 04:00:00 17.7 4 Sudeste 14 Este 0 -- -- 49
2019-06-03 03:00:00 18.2 4 Sudeste 13 Sur 0 -- -- 48
2019-06-03 02:00:00 17.7 8 Sudeste 18 Norte 0 -- -- 50
2019-06-03 01:00:00 20.6 13 Norte 26 Oeste 0 -- -- 40
2019-06-03 00:00:00 21.8 7 Sur 14 Sur 0 -- -- 38
2019-06-02 23:00:00 23 6 Sur 26 Este 0 -- -- 36
2019-06-02 22:00:00 25.2 19 Este 30 Este 0 -- -- 31
2019-06-02 21:00:00 27.7 19 Este 35 Este 0 -- -- 27
2019-06-02 20:00:00 30.8 19 Este 31 Este 0 -- -- 22
2019-06-02 19:00:00 31.6 15 Este 24 Este 0 -- -- 21
2019-06-02 18:00:00 32.1 10 Este 24 Este 0 -- -- 21
2019-06-02 17:00:00 32.2 13 Este 31 Este 0 -- -- 22
2019-06-02 16:00:00 31.8 12 Este 23 Este 0 -- -- 23
2019-06-02 15:00:00 30.8 9 Este 25 Este 0 -- -- 24
2019-06-02 14:00:00 29.9 11 Este 24 Este 0 -- -- 26
2019-06-02 13:00:00 29.2 10 Este 16 Nordeste 0 -- -- 27
2019-06-02 12:00:00 27.2 7 Noroeste 15 Noroeste 0 -- -- 33
2019-06-02 11:00:00 25.2 6 Norte 14 Norte 0 -- -- 34
2019-06-02 10:00:00 23.2 6 Norte 10 Norte 0 -- -- 38
2019-06-02 09:00:00 21.6 4 Este 9 Sudeste 0 -- -- 41
2019-06-02 08:00:00 15.9 4 Sudeste 9 Sudeste 0 -- -- 60
2019-06-02 07:00:00 12 3 Sudeste 10 Sudeste 0 -- -- 70
2019-06-02 06:00:00 12.4 0 Calma 10 Sudeste 0 -- -- 70
2019-06-02 05:00:00 13.5 4 Sudeste 7 Sur 0 -- -- 68
2019-06-02 04:00:00 14.6 0 Calma 4 Sur 0 -- -- 65
2019-06-02 03:00:00 17.9 4 Sur 12 Sur 0 -- -- 54
2019-06-02 02:00:00 17.7 8 Sudoeste 11 Sur 0 -- -- 54
2019-06-02 01:00:00 20.1 6 Sur 13 Sur 0 -- -- 46
2019-06-02 00:00:00 20.6 9 Sur 17 Sur 0 -- -- 43
2019-06-01 23:00:00 22.8 13 Sudeste 31 Este 0 -- -- 37
2019-06-01 22:00:00 24.6 19 Este 34 Este 0 -- -- 31
2019-06-01 21:00:00 27.2 16 Este 29 Este 0 -- -- 28
2019-06-01 20:00:00 29.9 7 Nordeste 16 Este 0 -- -- 18
2019-06-01 19:00:00 31 8 Norte 17 Norte 0 -- -- 17
2019-06-01 18:00:00 31 8 Nordeste 20 Norte 0 -- -- 20
2019-06-01 17:00:00 31.2 7 Nordeste 20 Este 0 -- -- 22
2019-06-01 16:00:00 30.2 10 Nordeste 24 Este 0 -- -- 25
2019-06-01 15:00:00 29.7 7 Nordeste 22 Noroeste 0 -- -- 27
2019-06-01 14:00:00 28.2 10 Nordeste 23 Nordeste 0 -- -- 31
2019-06-01 13:00:00 27.6 9 Nordeste 21 Noroeste 0 -- -- 34
2019-06-01 12:00:00 26 8 Norte 15 Noroeste 0 -- -- 38
2019-06-01 11:00:00 24.5 3 Nordeste 12 Este 0 -- -- 39
2019-06-01 10:00:00 22.4 5 Este 9 Este 0 -- -- 45
2019-06-01 09:00:00 20.2 2 Nordeste 6 Este 0 -- -- 52
2019-06-01 08:00:00 15.1 3 Este 11 Sudeste 0 -- -- 70
2019-06-01 07:00:00 10.7 5 Sudeste 12 Sudeste 0 -- -- 85
2019-06-01 06:00:00 10.9 9 Sudeste 12 Sudeste 0 -- -- 83
2019-06-01 05:00:00 11.8 7 Sudeste 11 Sudeste 0 -- -- 80
2019-06-01 04:00:00 13.4 4 Sur 9 Este 0 -- -- 74
2019-06-01 03:00:00 14.1 3 Sudoeste 12 Sudeste 0 -- -- 73
2019-06-01 02:00:00 15.3 8 Sudeste 13 Sudeste 0 -- -- 67
2019-06-01 01:00:00 16.5 4 Sur 11 Sudeste 0 -- -- 62
2019-06-01 00:00:00 19.1 5 Sudeste 11 Sur 0 -- -- 53
2019-05-31 23:00:00 20.7 8 Sudeste 22 Este 0 -- -- 48
2019-05-31 22:00:00 19 9 Sudeste 16 Sudeste 0 -- -- 45
2019-05-31 21:00:00 24.5 4 Este 14 Este 0 -- -- 32
2019-05-31 20:00:00 28.2 6 Norte 14 Norte 0 -- -- 20
2019-05-31 19:00:00 28.8 6 Norte 17 Norte 0 -- -- 20
2019-05-31 18:00:00 28.9 10 Norte 19 Norte 0 -- -- 24
2019-05-31 17:00:00 28.3 11 Norte 21 Norte 0 -- -- 28
2019-05-31 16:00:00 27.8 9 Norte 25 Norte 0 -- -- 32
2019-05-31 15:00:00 26.7 9 Noroeste 21 Norte 0 -- -- 35
2019-05-31 14:00:00 25.9 12 Norte 21 Norte 0 -- -- 38
2019-05-31 13:00:00 24.7 8 Noroeste 19 Oeste 0 -- -- 38
2019-05-31 12:00:00 22.9 11 Oeste 21 Noroeste 0 -- -- 44
2019-05-31 11:00:00 21.5 9 Oeste 21 Noroeste 0 -- -- 51
2019-05-31 10:00:00 19.8 14 Noroeste 20 Noroeste 0 -- -- 54
2019-05-31 09:00:00 18.3 11 Noroeste 19 Noroeste 0 -- -- 60
2019-05-31 08:00:00 16.1 7 Norte 18 Oeste 0 -- -- 68
2019-05-31 07:00:00 13.5 5 Nordeste 21 Oeste 0 -- -- 78
2019-05-31 06:00:00 13.5 2 Sur 10 Sudoeste 0 -- -- 79
2019-05-31 05:00:00 14.3 6 Oeste 14 Noroeste 0 -- -- 77
2019-05-31 04:00:00 15 8 Oeste 13 Oeste 0 -- -- 71
2019-05-31 03:00:00 16.2 5 Norte 11 Norte 0 -- -- 65
2019-05-31 02:00:00 17 5 Nordeste 16 Nordeste 0 -- -- 57
2019-05-31 01:00:00 17.9 9 Sudeste 21 Sur 0 -- -- 54
2019-05-31 00:00:00 19.1 8 Sudoeste 28 Oeste 0 -- -- 47
2019-05-30 23:00:00 20.7 16 Oeste 27 Oeste 0 -- -- 41
2019-05-30 22:00:00 21.3 16 Oeste 26 Oeste 0 -- -- 38
2019-05-30 21:00:00 21 6 Oeste 14 Noroeste 0 -- -- 42
2019-05-30 20:00:00 26.2 9 Oeste 19 Noroeste 0 -- -- 29
2019-05-30 19:00:00 26.6 9 Noroeste 19 Norte 0 -- -- 25
2019-05-30 18:00:00 26.5 10 Noroeste 24 Oeste 0 -- -- 28
2019-05-30 17:00:00 26.4 15 Noroeste 29 Noroeste 0 -- -- 28
2019-05-30 16:00:00 25.5 15 Noroeste 24 Norte 0 -- -- 34
2019-05-30 15:00:00 25 14 Noroeste 31 Noroeste 0 -- -- 33
2019-05-30 14:00:00 23.5 13 Noroeste 31 Noroeste 0 -- -- 37
2019-05-30 13:00:00 22.3 22 Noroeste 34 Oeste 0 -- -- 38
2019-05-30 12:00:00 20.1 24 Noroeste 38 Oeste 0 -- -- 43
2019-05-30 11:00:00 18.4 30 Oeste 49 Oeste 0 -- -- 47
2019-05-30 10:00:00 16.6 35 Oeste 51 Oeste 0 -- -- 50
2019-05-30 09:00:00 14.6 36 Oeste 55 Noroeste 0 -- -- 58
2019-05-30 08:00:00 13.2 19 Oeste 39 Oeste 0 -- -- 65
2019-05-30 07:00:00 12 24 Oeste 39 Noroeste 0 -- -- 69
2019-05-30 06:00:00 12 18 Oeste 43 Oeste 0 -- -- 67
2019-05-30 05:00:00 12.2 24 Oeste 48 Oeste 0 -- -- 67
2019-05-30 04:00:00 11.9 18 Oeste 37 Noroeste 0 -- -- 69
2019-05-30 03:00:00 11.9 15 Oeste 40 Noroeste 0 -- -- 67
2019-05-30 02:00:00 12 23 Oeste 45 Oeste 0 -- -- 65
2019-05-30 01:00:00 12.4 26 Oeste 66 Oeste 0 -- -- 61
2019-05-30 00:00:00 12.9 31 Oeste 49 Oeste 0 -- -- 61
2019-05-29 23:00:00 13.6 28 Oeste 49 Oeste 0 -- -- 58
2019-05-29 22:00:00 14.5 27 Oeste 60 Noroeste 0 -- -- 55
2019-05-29 21:00:00 15.6 36 Noroeste 61 Oeste 0 -- -- 51
2019-05-29 20:00:00 17.5 40 Noroeste 64 Oeste 0 -- -- 47
2019-05-29 19:00:00 18.7 42 Noroeste 64 Noroeste 0 -- -- 41
2019-05-29 18:00:00 19.2 42 Noroeste 62 Noroeste 0 -- -- 38
2019-05-29 17:00:00 19.4 36 Noroeste 67 Oeste 0 -- -- 37
2019-05-29 16:00:00 18.8 44 Oeste 66 Oeste 0 -- -- 39
2019-05-29 15:00:00 18.1 45 Noroeste 59 Oeste 0 -- -- 40
2019-05-29 14:00:00 17.9 43 Oeste 65 Oeste 0 -- -- 41
2019-05-29 13:00:00 16.8 44 Noroeste 64 Noroeste 0 -- -- 43
2019-05-29 12:00:00 16.1 37 Noroeste 64 Noroeste 0 -- -- 51
2019-05-29 11:00:00 15 39 Noroeste 55 Oeste 0 -- -- 56
2019-05-29 10:00:00 13.8 35 Noroeste 53 Oeste 0 -- -- 60
2019-05-29 09:00:00 11.8 31 Oeste 51 Noroeste 0 -- -- 69
2019-05-29 08:00:00 10.7 34 Oeste 53 Oeste 0 -- -- 72
2019-05-29 07:00:00 9.5 40 Oeste 57 Noroeste 0 -- -- 72
2019-05-29 06:00:00 9.4 27 Oeste 57 Oeste 0 -- -- 73
2019-05-29 05:00:00 9.5 38 Oeste 64 Oeste 0 -- -- 72
2019-05-29 04:00:00 9.7 43 Oeste 61 Oeste 0 -- -- 70
2019-05-29 03:00:00 9.8 36 Oeste 58 Oeste 0 -- -- 69
2019-05-29 02:00:00 10.3 42 Oeste 58 Oeste 0 -- -- 67
2019-05-29 01:00:00 10.3 32 Noroeste 62 Oeste 0 -- -- 68
2019-05-29 00:00:00 10.7 33 Noroeste 55 Noroeste 0 -- -- 67
2019-05-28 23:00:00 11.4 29 Noroeste 48 Noroeste 0 -- -- 62
2019-05-28 22:00:00 12 31 Noroeste 45 Noroeste 0 -- -- 54
2019-05-28 21:00:00 13 29 Noroeste 59 Noroeste 0 -- -- 54
2019-05-28 20:00:00 14.6 33 Noroeste 74 Noroeste 0 -- -- 56
2019-05-28 19:00:00 15.1 44 Noroeste 62 Noroeste 0 -- -- 54
2019-05-28 18:00:00 15.7 41 Noroeste 65 Noroeste 0 -- -- 52
2019-05-28 17:00:00 16.8 39 Noroeste 71 Noroeste 0 -- -- 45
2019-05-28 16:00:00 17.8 47 Noroeste 72 Noroeste 0 -- -- 42
2019-05-28 15:00:00 17.4 49 Oeste 79 Oeste 0 -- -- 45
2019-05-28 14:00:00 17.1 55 Oeste 77 Oeste 0 -- -- 47
2019-05-28 13:00:00 16.7 48 Noroeste 81 Oeste 0 -- -- 47
2019-05-28 12:00:00 15.6 54 Oeste 80 Oeste 0 -- -- 48
2019-05-28 11:00:00 14.4 50 Oeste 87 Oeste 0 -- -- 53
2019-05-28 10:00:00 12.9 60 Oeste 87 Oeste 0 -- -- 56
2019-05-28 09:00:00 11.9 46 Oeste 77 Oeste 0 -- -- 59
2019-05-28 08:00:00 10.7 48 Oeste 77 Oeste 0 -- -- 62
2019-05-28 07:00:00 10 58 Oeste 86 Oeste 0 -- -- 63
2019-05-28 06:00:00 10.1 54 Oeste 77 Oeste 0 -- -- 65
2019-05-28 05:00:00 10.2 50 Oeste 76 Oeste 0 -- -- 64
2019-05-28 04:00:00 10.5 51 Oeste 77 Noroeste 0 -- -- 69
2019-05-28 03:00:00 11.1 46 Oeste 68 Oeste 0 -- -- 67
2019-05-28 02:00:00 11.8 43 Oeste 76 Oeste 0 -- -- 65
2019-05-28 01:00:00 12.3 41 Oeste 76 Noroeste 0 -- -- 63
2019-05-28 00:00:00 13.1 46 Noroeste 64 Noroeste 0 -- -- 65
2019-05-27 23:00:00 14.1 16 Noroeste 50 Norte 0 -- -- 63
2019-05-27 22:00:00 15.4 22 Noroeste 54 Noroeste 0 -- -- 67
2019-05-27 21:00:00 16.8 33 Oeste 58 Oeste 0 -- -- 61
2019-05-27 20:00:00 18.8 31 Oeste 64 Oeste 0 -- -- 54
2019-05-27 19:00:00 19.5 45 Oeste 66 Noroeste 0 -- -- 52
2019-05-27 18:00:00 21 33 Noroeste 60 Noroeste 0 -- -- 52
2019-05-27 17:00:00 22.1 35 Noroeste 61 Oeste 0 -- -- 48
2019-05-27 16:00:00 21.9 43 Oeste 57 Noroeste 0 -- -- 46
2019-05-27 15:00:00 21.1 40 Oeste 63 Oeste 0 -- -- 49
2019-05-27 14:00:00 20.3 38 Noroeste 54 Noroeste 0 -- -- 51
2019-05-27 13:00:00 18.6 32 Noroeste 52 Noroeste 0 -- -- 54
2019-05-27 12:00:00 16.9 39 Oeste 56 Noroeste 0 -- -- 58
2019-05-27 11:00:00 16.2 34 Noroeste 54 Noroeste 0 -- -- 60
2019-05-27 10:00:00 13.8 33 Noroeste 56 Oeste 0 -- -- 69
2019-05-27 09:00:00 12.4 33 Noroeste 48 Noroeste 0 -- -- 75
2019-05-27 08:00:00 12.1 23 Noroeste 47 Noroeste 0 -- -- 76
2019-05-27 07:00:00 10.7 30 Noroeste 51 Noroeste 0 -- -- 80
2019-05-27 06:00:00 10.5 18 Noroeste 48 Oeste 0 -- -- 81
2019-05-27 05:00:00 10.6 35 Noroeste 49 Oeste 0 -- -- 82
2019-05-27 04:00:00 11 22 Oeste 49 Oeste 0 -- -- 82
2019-05-27 03:00:00 11.6 39 Oeste 61 Oeste 0 -- -- 79
2019-05-27 02:00:00 11.9 39 Oeste 59 Oeste 0 -- -- 78
2019-05-27 01:00:00 11.8 25 Oeste 44 Oeste 0 -- -- 81
2019-05-27 00:00:00 12.2 21 Noroeste 36 Oeste 0 -- -- 78
2019-05-26 23:00:00 12.9 21 Noroeste 49 Oeste 0 -- -- 75
2019-05-26 22:00:00 13.6 23 Oeste 45 Oeste 0 -- -- 70
2019-05-26 21:00:00 14.9 30 Oeste 60 Oeste 0 -- -- 63
2019-05-26 20:00:00 17.2 36 Noroeste 62 Noroeste 0 -- -- 54
2019-05-26 19:00:00 18.4 39 Oeste 60 Oeste 0 -- -- 50
2019-05-26 18:00:00 19.3 36 Oeste 56 Oeste 0 -- -- 49
2019-05-26 17:00:00 19.5 36 Noroeste 60 Oeste 0 -- -- 49
2019-05-26 16:00:00 19.5 36 Oeste 58 Noroeste 0 -- -- 51
2019-05-26 15:00:00 18.6 40 Oeste 57 Oeste 0 -- -- 52
2019-05-26 14:00:00 17.6 37 Oeste 55 Oeste 0 -- -- 53
2019-05-26 13:00:00 16.9 36 Oeste 57 Oeste 0 -- -- 57
2019-05-26 12:00:00 16.1 34 Oeste 49 Oeste 0 -- -- 57
2019-05-26 11:00:00 14 32 Oeste 46 Noroeste 0 -- -- 64
2019-05-26 10:00:00 13.3 30 Oeste 47 Noroeste 0 -- -- 65
2019-05-26 09:00:00 12.7 30 Oeste 50 Oeste 0 -- -- 66
2019-05-26 08:00:00 10.9 26 Oeste 55 Oeste 0 -- -- 72
2019-05-26 07:00:00 10.1 36 Oeste 63 Noroeste 0 -- -- 72
2019-05-26 06:00:00 9.7 23 Oeste 52 Oeste 0 -- -- 74
2019-05-26 05:00:00 10.1 33 Oeste 58 Oeste 0 -- -- 71
2019-05-26 04:00:00 10.3 35 Oeste 60 Oeste 0 -- -- 71
2019-05-26 03:00:00 10.4 28 Oeste 63 Noroeste 0 -- -- 74
2019-05-26 02:00:00 10.7 35 Oeste 66 Noroeste 0 -- -- 75
2019-05-26 01:00:00 11.1 40 Oeste 64 Oeste 0 -- -- 75
2019-05-26 00:00:00 11.5 46 Oeste 75 Oeste 0 -- -- 74
2019-05-25 23:00:00 11.9 44 Oeste 70 Oeste 0 -- -- 73
2019-05-25 22:00:00 12.8 42 Oeste 61 Oeste 0 -- -- 72
2019-05-25 21:00:00 14 35 Oeste 54 Oeste 0 -- -- 67
2019-05-25 20:00:00 16.2 33 Noroeste 58 Oeste 0 -- -- 59
2019-05-25 19:00:00 17.9 37 Oeste 71 Oeste 0 -- -- 54
2019-05-25 18:00:00 18.8 39 Noroeste 62 Noroeste 0 -- -- 50
2019-05-25 17:00:00 19.7 33 Noroeste 57 Noroeste 0 -- -- 50
2019-05-25 16:00:00 19.1 44 Noroeste 59 Noroeste 0 -- -- 51
2019-05-25 15:00:00 19 36 Oeste 65 Oeste 0 -- -- 54
2019-05-25 14:00:00 17.6 40 Noroeste 57 Noroeste 0 -- -- 58
2019-05-25 13:00:00 17.8 40 Noroeste 60 Noroeste 0 -- -- 60
2019-05-25 12:00:00 16.1 41 Noroeste 58 Noroeste 0 -- -- 64
2019-05-25 11:00:00 15.4 37 Oeste 59 Oeste 0 -- -- 65
2019-05-25 10:00:00 14.2 36 Oeste 61 Oeste 0 -- -- 68
2019-05-25 09:00:00 12.8 36 Oeste 61 Oeste 0 -- -- 73
2019-05-25 08:00:00 11.3 40 Oeste 56 Oeste 0 -- -- 76
2019-05-25 07:00:00 10.7 36 Oeste 61 Oeste 0 -- -- 80
2019-05-25 06:00:00 10.8 39 Oeste 68 Noroeste 0 -- -- 79
2019-05-25 05:00:00 10.9 39 Oeste 56 Oeste 0 -- -- 78
2019-05-25 04:00:00 11.2 37 Oeste 55 Oeste 0 -- -- 78
2019-05-25 03:00:00 11.1 37 Oeste 59 Oeste 0 -- -- 78
2019-05-25 02:00:00 11.1 33 Oeste 58 Oeste 0 -- -- 79
2019-05-25 01:00:00 11.6 34 Oeste 57 Noroeste 0 -- -- 77
2019-05-25 00:00:00 11.9 41 Oeste 62 Oeste 0 -- -- 78
2019-05-24 23:00:00 12.3 35 Oeste 71 Oeste 0 -- -- 76
2019-05-24 22:00:00 12.7 39 Noroeste 63 Oeste 0 -- -- 75
2019-05-24 21:00:00 13.5 42 Noroeste 66 Oeste 0 -- -- 71
2019-05-24 20:00:00 14.8 42 Noroeste 68 Noroeste 0 -- -- 66
2019-05-24 19:00:00 16.7 36 Noroeste 59 Noroeste 0 -- -- 61
2019-05-24 18:00:00 16.3 36 Noroeste 59 Oeste 0 -- -- 61
2019-05-24 17:00:00 17.4 38 Noroeste 58 Noroeste 0 -- -- 57
2019-05-24 16:00:00 17.7 32 Noroeste 55 Noroeste 0 -- -- 60
2019-05-24 15:00:00 15.8 33 Noroeste 53 Oeste 0 -- -- 67
2019-05-24 14:00:00 15.8 29 Noroeste 45 Noroeste 0 -- -- 74
2019-05-24 13:00:00 13.3 32 Noroeste 46 Oeste 0 -- -- 81
2019-05-24 12:00:00 12.7 32 Oeste 47 Oeste 0 -- -- 86
2019-05-24 11:00:00 11.6 26 Oeste 47 Oeste 1.2 -- -- 93
2019-05-24 10:00:00 11.2 32 Oeste 48 Oeste 0 -- -- 94
2019-05-24 09:00:00 10.9 28 Noroeste 44 Oeste 1.8 -- -- 96
2019-05-24 08:00:00 11 21 Noroeste 41 Oeste 0.6 -- -- 94
2019-05-24 07:00:00 11.3 32 Oeste 52 Oeste 0 -- -- 92
2019-05-24 06:00:00 11.7 29 Oeste 44 Oeste 0.2 -- -- 92
2019-05-24 05:00:00 11.6 12 Noroeste 41 Oeste 0.2 -- -- 94
2019-05-24 04:00:00 11.7 28 Oeste 45 Oeste 0.2 -- -- 92
2019-05-24 03:00:00 12.2 32 Oeste 55 Noroeste 0 -- -- 86
2019-05-24 02:00:00 13.1 36 Oeste 50 Oeste 0 -- -- 81
2019-05-24 01:00:00 13.7 22 Oeste 47 Oeste 0 -- -- 81
2019-05-24 00:00:00 15.2 7 Noroeste 23 Oeste 0.2 -- -- 87
2019-05-23 23:00:00 15.8 20 Oeste 40 Oeste 0.2 -- -- 81
2019-05-23 22:00:00 15.3 10 Norte 55 Sudoeste 2.4 -- -- 85
2019-05-23 21:00:00 18.8 13 Oeste 33 Sudoeste 0 -- -- 61
2019-05-23 20:00:00 19.5 12 Noroeste 30 Oeste 0.2 -- -- 63
2019-05-23 19:00:00 20.7 22 Sur 46 Sur 0 -- -- 52
2019-05-23 18:00:00 25.7 7 Norte 13 Este 0 -- -- 35
2019-05-23 17:00:00 26.3 7 Norte 15 Norte 0 -- -- 31
2019-05-23 16:00:00 26.2 5 Nordeste 17 Norte 0 -- -- 31
2019-05-23 15:00:00 25.6 8 Norte 15 Nordeste 0 -- -- 35
2019-05-23 14:00:00 25.8 8 Norte 16 Noroeste 0 -- -- 34
2019-05-23 13:00:00 24.6 5 Nordeste 13 Norte 0 -- -- 35
2019-05-23 12:00:00 23.1 7 Norte 16 Noroeste 0 -- -- 41
2019-05-23 11:00:00 21.8 11 Noroeste 18 Noroeste 0 -- -- 44
2019-05-23 10:00:00 21.5 3 Nordeste 8 Nordeste 0 -- -- 38
2019-05-23 09:00:00 18.7 2 Este 4 Sur 0 -- -- 42
2019-05-23 08:00:00 14.4 4 Sudeste 12 Sudeste 0 -- -- 63
2019-05-23 07:00:00 10.5 11 Sudeste 13 Sudeste 0 -- -- 70
2019-05-23 06:00:00 10.4 4 Sur 12 Sudeste 0 -- -- 70
2019-05-23 05:00:00 11.2 9 Sudeste 14 Sudeste 0 -- -- 66
2019-05-23 04:00:00 11.7 10 Sudeste 15 Sudeste 0 -- -- 65
2019-05-23 03:00:00 12.6 9 Sudeste 16 Sudeste 0 -- -- 62
2019-05-23 02:00:00 12.9 5 Sudeste 15 Sudeste 0 -- -- 61
2019-05-23 01:00:00 12.7 8 Sudeste 15 Sudeste 0 -- -- 63
2019-05-23 00:00:00 13.4 6 Sudeste 13 Sudeste 0 -- -- 62
2019-05-22 23:00:00 14.4 12 Sudeste 14 Sudeste 0 -- -- 59
2019-05-22 22:00:00 16 8 Sudeste 12 Sudeste 0 -- -- 57
2019-05-22 21:00:00 17.7 7 Oeste 14 Noroeste 0 -- -- 52
2019-05-22 20:00:00 23.2 9 Noroeste 19 Norte 0 -- -- 31
2019-05-22 19:00:00 24.4 10 Norte 21 Oeste 0 -- -- 29
2019-05-22 18:00:00 24.4 11 Norte 28 Noroeste 0 -- -- 26
2019-05-22 17:00:00 24 19 Noroeste 31 Noroeste 0 -- -- 31
2019-05-22 16:00:00 23.9 16 Oeste 28 Noroeste 0 -- -- 32
2019-05-22 15:00:00 23.8 14 Oeste 27 Noroeste 0 -- -- 35
2019-05-22 14:00:00 22.5 9 Oeste 22 Oeste 0 -- -- 37
2019-05-22 13:00:00 20.6 12 Noroeste 33 Noroeste 0 -- -- 39
2019-05-22 12:00:00 19.2 12 Oeste 28 Oeste 0 -- -- 44
2019-05-22 11:00:00 17.5 17 Noroeste 26 Noroeste 0 -- -- 48
2019-05-22 10:00:00 16.1 13 Oeste 24 Noroeste 0 -- -- 54
2019-05-22 09:00:00 13.8 16 Noroeste 24 Noroeste 0 -- -- 62
2019-05-22 08:00:00 12.1 6 Noroeste 26 Oeste 0 -- -- 66
2019-05-22 07:00:00 10.7 14 Noroeste 32 Noroeste 0 -- -- 67
2019-05-22 06:00:00 11.1 15 Oeste 33 Noroeste 0 -- -- 65
2019-05-22 05:00:00 11.9 18 Oeste 29 Oeste 0 -- -- 59
2019-05-22 04:00:00 11.5 13 Oeste 21 Oeste 0 -- -- 62
2019-05-22 03:00:00 12.1 9 Oeste 19 Noroeste 0 -- -- 61
2019-05-22 02:00:00 12.4 8 Oeste 24 Sudoeste 0 -- -- 62
2019-05-22 01:00:00 13.3 17 Oeste 28 Sudoeste 0 -- -- 59
2019-05-22 00:00:00 13.6 16 Oeste 36 Oeste 0 -- -- 58
2019-05-21 23:00:00 15.3 23 Oeste 32 Oeste 0 -- -- 52
2019-05-21 22:00:00 15.9 15 Oeste 23 Oeste 0 -- -- 36
2019-05-21 21:00:00 16.7 12 Oeste 26 Noroeste 0 -- -- 38
2019-05-21 20:00:00 20.6 18 Noroeste 27 Noroeste 0 -- -- 28
2019-05-21 19:00:00 21.9 16 Noroeste 30 Noroeste 0 -- -- 25
2019-05-21 18:00:00 22.4 18 Noroeste 37 Noroeste 0 -- -- 22
2019-05-21 17:00:00 22.4 19 Noroeste 34 Noroeste 0 -- -- 25
2019-05-21 16:00:00 22.3 17 Noroeste 30 Noroeste 0 -- -- 25
2019-05-21 15:00:00 21.1 17 Noroeste 28 Noroeste 0 -- -- 31
2019-05-21 14:00:00 20.5 15 Noroeste 26 Noroeste 0 -- -- 30
2019-05-21 13:00:00 19.2 16 Noroeste 26 Oeste 0 -- -- 42
2019-05-21 12:00:00 17.2 15 Oeste 31 Oeste 0 -- -- 54
2019-05-21 11:00:00 15.4 20 Oeste 30 Noroeste 0 -- -- 56
2019-05-21 10:00:00 13.9 21 Oeste 28 Oeste 0 -- -- 60
2019-05-21 09:00:00 12.3 12 Noroeste 22 Oeste 0 -- -- 65
2019-05-21 08:00:00 11.1 3 Noroeste 14 Sudoeste 0 -- -- 67
2019-05-21 07:00:00 8.9 4 Oeste 15 Oeste 0 -- -- 76
2019-05-21 06:00:00 9.2 6 Sudeste 11 Sudoeste 0 -- -- 71
2019-05-21 05:00:00 10.7 6 Oeste 27 Noroeste 0 -- -- 64
2019-05-21 04:00:00 10.4 6 Oeste 25 Oeste 0 -- -- 66
2019-05-21 03:00:00 11.1 16 Oeste 31 Sudoeste 0 -- -- 65
2019-05-21 02:00:00 11.9 18 Oeste 28 Oeste 0 -- -- 64
2019-05-21 01:00:00 12.1 12 Oeste 20 Sudoeste 0 -- -- 62
2019-05-21 00:00:00 11.2 5 Oeste 15 Oeste 0 -- -- 65